createdAt,value
2024-04-18T00:07:25.593Z,98846.72
2024-04-18T00:17:48.205Z,98860.22
2024-04-18T00:27:58.603Z,98860.94
2024-04-18T00:38:16.738Z,98853.81
2024-04-18T00:48:19.685Z,98862.59
2024-04-18T00:58:22.638Z,98852.88
2024-04-18T01:08:25.476Z,98862.16
2024-04-18T01:18:35.542Z,98866.63
2024-04-18T01:29:07.464Z,98866.28
2024-04-18T01:39:10.088Z,98869.25
2024-04-18T01:49:12.821Z,98875.59
2024-04-18T01:59:30.445Z,98882.91
2024-04-18T02:09:33.058Z,98879.78
2024-04-18T02:19:55.605Z,98886.63
2024-04-18T02:30:16.200Z,98890.66
2024-04-18T02:40:18.833Z,98902.09
2024-04-18T02:50:35.568Z,98902.13
2024-04-18T03:00:38.977Z,98901.13
2024-04-18T03:10:50.838Z,98902.69
2024-04-18T03:21:10.533Z,98909.88
2024-04-18T03:31:19.230Z,98920.28
2024-04-18T03:41:21.862Z,98914.22
2024-04-18T03:51:43.124Z,98925.72
2024-04-18T04:02:14.975Z,98945.94
2024-04-18T04:12:17.824Z,98955.47
2024-04-18T04:22:40.508Z,98974.44
2024-04-18T04:33:01.179Z,98979.69
2024-04-18T04:43:09.649Z,98980.38
2024-04-18T04:53:12.554Z,98995.03
2024-04-18T05:03:34.027Z,99003.44
2024-04-18T05:13:56.608Z,99010.63
2024-04-18T05:23:59.745Z,99018.91
2024-04-18T05:34:02.537Z,99016.97
2024-04-18T05:44:05.477Z,99020.00
2024-04-18T05:54:08.957Z,99027.97
2024-04-18T06:04:31.572Z,99028.69
2024-04-18T06:15:06.612Z,99031.84
2024-04-18T06:25:09.359Z,99023.13
2024-04-18T06:35:11.951Z,99033.47
2024-04-18T06:45:16.363Z,99040.94
2024-04-18T06:55:19.058Z,99030.59
2024-04-18T07:05:22.503Z,99046.81
2024-04-18T07:15:25.561Z,99062.94
2024-04-18T07:25:46.757Z,99049.50
2024-04-18T07:36:04.641Z,99058.47
2024-04-18T07:46:07.488Z,99068.47
2024-04-18T07:56:10.779Z,99082.56
2024-04-18T08:06:15.873Z,99078.59
2024-04-18T08:16:20.546Z,99079.91
2024-04-18T08:26:25.331Z,99081.50
2024-04-18T08:36:28.140Z,99088.56
2024-04-18T08:46:39.726Z,99099.56
2024-04-18T08:56:48.498Z,99111.03
2024-04-18T09:06:51.321Z,99132.34
2024-04-18T09:16:54.552Z,99110.66
2024-04-18T09:26:57.707Z,99131.47
2024-04-18T09:37:08.451Z,99120.09
2024-04-18T09:47:12.447Z,99126.19
2024-04-18T09:57:16.974Z,99127.78
2024-04-18T10:07:21.892Z,99120.34
2024-04-18T10:17:30.186Z,99122.84
2024-04-18T10:27:43.223Z,99121.44
2024-04-18T10:37:55.855Z,99125.72
2024-04-18T10:48:00.209Z,99126.06
2024-04-18T10:58:04.535Z,99121.50
2024-04-18T11:08:10.896Z,99133.28
2024-04-18T11:18:13.816Z,99139.03
2024-04-18T11:28:18.827Z,99147.00
2024-04-18T11:38:22.312Z,99142.88
2024-04-18T11:48:25.759Z,99155.13
2024-04-18T11:58:29.212Z,99144.06
2024-04-18T12:08:32.465Z,99134.78
2024-04-18T12:18:35.824Z,99153.69
2024-04-18T12:28:59.152Z,99160.00
2024-04-18T12:39:07.487Z,99167.06
2024-04-18T12:49:11.165Z,99160.13
2024-04-18T12:59:15.711Z,99161.66
2024-04-18T13:09:21.770Z,99156.09
2024-04-18T13:19:24.609Z,99169.28
2024-04-18T13:29:27.451Z,99164.81
2024-04-18T13:39:51.789Z,99156.47
2024-04-18T13:49:54.701Z,99167.22
2024-04-18T13:59:57.426Z,99172.25
2024-04-18T14:10:19.424Z,99170.09
2024-04-18T14:20:48.579Z,99178.81
2024-04-18T14:30:51.318Z,99178.53
2024-04-18T14:41:02.010Z,99188.06
2024-04-18T14:51:12.547Z,99183.25
2024-04-18T15:01:21.441Z,99203.97
2024-04-18T15:11:25.849Z,99204.78
2024-04-18T15:21:38.703Z,99201.34
2024-04-18T15:31:48.065Z,99203.78
2024-04-18T15:42:11.446Z,99232.09
2024-04-18T15:52:22.510Z,99238.41
2024-04-18T16:02:25.201Z,99244.22
2024-04-18T16:12:47.840Z,99251.91
2024-04-18T16:22:50.612Z,99257.06
2024-04-18T16:33:02.485Z,99269.44
2024-04-18T16:43:07.015Z,99283.88
2024-04-18T16:53:29.063Z,99303.75
2024-04-18T17:03:50.277Z,99314.44
2024-04-18T17:14:08.785Z,99347.19
2024-04-18T17:24:12.930Z,99350.78
2024-04-18T17:34:34.042Z,99357.19
2024-04-18T17:44:43.152Z,99368.28
2024-04-18T17:55:01.869Z,99384.41
2024-04-18T18:05:05.356Z,99397.84
2024-04-18T18:15:09.075Z,99418.84
2024-04-18T18:25:11.757Z,99428.00
2024-04-18T18:35:14.662Z,99449.00
2024-04-18T18:45:19.438Z,99457.44
2024-04-18T18:55:22.115Z,99468.19
2024-04-18T19:05:47.846Z,99494.78
2024-04-18T19:15:59.439Z,99503.56
2024-04-18T19:26:03.140Z,99515.19
2024-04-18T19:36:09.218Z,99525.38
2024-04-18T19:46:13.189Z,99541.50
2024-04-18T19:56:36.547Z,99537.72
2024-04-18T20:06:39.952Z,99548.59
2024-04-18T20:16:45.621Z,99563.00
2024-04-18T20:26:49.937Z,99564.91
2024-04-18T20:36:53.886Z,99563.38
2024-04-18T20:46:57.947Z,99583.53
2024-04-18T20:57:00.693Z,99576.63
2024-04-18T21:07:03.499Z,99603.59
2024-04-18T21:17:06.635Z,99612.91
2024-04-18T21:27:09.881Z,99618.06
2024-04-18T21:37:12.752Z,99618.84
2024-04-18T21:47:16.015Z,99617.97
2024-04-18T21:57:20.448Z,99621.72
2024-04-18T22:07:23.104Z,99640.88
2024-04-18T22:17:25.731Z,99646.41
2024-04-18T22:27:28.443Z,99655.03
2024-04-18T22:37:31.120Z,99660.66
2024-04-18T22:47:33.806Z,99668.16
2024-04-18T22:57:36.567Z,99669.66
2024-04-18T23:07:39.396Z,99664.66
2024-04-18T23:18:01.748Z,99667.06
2024-04-18T23:28:04.680Z,99673.44
2024-04-18T23:38:07.354Z,99669.25
2024-04-18T23:48:10.400Z,99671.06
2024-04-18T23:58:13.225Z,99666.09
